sensor_id;sensor_type;location;lat;lon;timestamp;pressure;altitude;pressure_sealevel;temperature;humidity
62510;BME280;48558;48.242;11.654;2023-01-28T00:03:51;96607.41;;;-0.85;100.00
62510;BME280;48558;48.242;11.654;2023-01-28T00:08:04;96600.03;;;-0.85;100.00
62510;BME280;48558;48.242;11.654;2023-01-28T00:12:16;96611.72;;;-0.77;100.00
62510;BME280;48558;48.242;11.654;2023-01-28T00:16:29;96606.25;;;-0.84;100.00
62510;BME280;48558;48.242;11.654;2023-01-28T00:20:42;96604.28;;;-0.84;100.00
62510;BME280;48558;48.242;11.654;2023-01-28T00:24:54;96600.47;;;-0.76;100.00
62510;BME280;48558;48.242;11.654;2023-01-28T00:29:06;96591.88;;;-0.92;100.00
62510;BME280;48558;48.242;11.654;2023-01-28T00:33:19;96596.91;;;-0.94;100.00
62510;BME280;48558;48.242;11.654;2023-01-28T00:37:31;96600.78;;;-0.88;100.00
62510;BME280;48558;48.242;11.654;2023-01-28T00:41:54;96602.19;;;-1.18;100.00
62510;BME280;48558;48.242;11.654;2023-01-28T00:46:08;96607.31;;;-1.03;100.00
62510;BME280;48558;48.242;11.654;2023-01-28T00:50:32;96596.53;;;-0.85;100.00
62510;BME280;48558;48.242;11.654;2023-01-28T00:54:44;96608.09;;;-0.99;100.00
62510;BME280;48558;48.242;11.654;2023-01-28T00:58:56;96594.22;;;-0.87;100.00
62510;BME280;48558;48.242;11.654;2023-01-28T01:03:09;96605.03;;;-0.90;100.00
62510;BME280;48558;48.242;11.654;2023-01-28T01:07:32;96606.94;;;-1.01;100.00
62510;BME280;48558;48.242;11.654;2023-01-28T01:11:53;96611.53;;;-1.12;100.00
62510;BME280;48558;48.242;11.654;2023-01-28T01:16:09;96616.09;;;-1.23;100.00
62510;BME280;48558;48.242;11.654;2023-01-28T01:20:25;96619.97;;;-1.28;100.00
62510;BME280;48558;48.242;11.654;2023-01-28T01:24:38;96618.91;;;-1.09;100.00
62510;BME280;48558;48.242;11.654;2023-01-28T01:28:51;96611.13;;;-1.18;100.00
62510;BME280;48558;48.242;11.654;2023-01-28T01:33:03;96607.97;;;-1.23;100.00
62510;BME280;48558;48.242;11.654;2023-01-28T01:37:16;96621.88;;;-1.28;100.00
62510;BME280;48558;48.242;11.654;2023-01-28T01:41:31;96625.00;;;-1.26;100.00
62510;BME280;48558;48.242;11.654;2023-01-28T01:45:48;96622.25;;;-1.33;100.00
62510;BME280;48558;48.242;11.654;2023-01-28T01:50:13;96626.50;;;-1.32;100.00
62510;BME280;48558;48.242;11.654;2023-01-28T01:54:31;96633.50;;;-1.28;100.00
62510;BME280;48558;48.242;11.654;2023-01-28T01:58:48;96639.66;;;-1.31;100.00
62510;BME280;48558;48.242;11.654;2023-01-28T02:03:02;96626.53;;;-1.29;100.00
62510;BME280;48558;48.242;11.654;2023-01-28T02:07:15;96629.56;;;-1.37;100.00
62510;BME280;48558;48.242;11.654;2023-01-28T02:11:31;96644.41;;;-1.21;100.00
62510;BME280;48558;48.242;11.654;2023-01-28T02:15:45;96646.63;;;-1.37;100.00
62510;BME280;48558;48.242;11.654;2023-01-28T02:20:01;96646.28;;;-1.28;100.00
62510;BME280;48558;48.242;11.654;2023-01-28T02:33:31;96636.63;;;-1.26;100.00
62510;BME280;48558;48.242;11.654;2023-01-28T02:37:53;96649.38;;;-1.30;100.00
62510;BME280;48558;48.242;11.654;2023-01-28T02:42:22;96648.94;;;-1.35;100.00
62510;BME280;48558;48.242;11.654;2023-01-28T02:46:38;96654.41;;;-1.28;100.00
62510;BME280;48558;48.242;11.654;2023-01-28T02:51:24;96659.94;;;-1.14;100.00
62510;BME280;48558;48.242;11.654;2023-01-28T02:55:45;96652.06;;;-1.33;100.00
62510;BME280;48558;48.242;11.654;2023-01-28T03:04:59;96661.47;;;-1.17;100.00
62510;BME280;48558;48.242;11.654;2023-01-28T03:09:16;96659.19;;;-1.11;100.00
62510;BME280;48558;48.242;11.654;2023-01-28T03:13:39;96666.78;;;-1.31;100.00
62510;BME280;48558;48.242;11.654;2023-01-28T03:18:16;96672.66;;;-1.22;100.00
62510;BME280;48558;48.242;11.654;2023-01-28T03:22:53;96668.78;;;-1.21;100.00
62510;BME280;48558;48.242;11.654;2023-01-28T03:27:32;96663.66;;;-1.36;100.00
62510;BME280;48558;48.242;11.654;2023-01-28T03:32:04;96676.41;;;-1.40;100.00
62510;BME280;48558;48.242;11.654;2023-01-28T03:36:36;96673.38;;;-1.28;100.00
62510;BME280;48558;48.242;11.654;2023-01-28T03:41:09;96676.13;;;-1.25;100.00
62510;BME280;48558;48.242;11.654;2023-01-28T03:45:32;96669.94;;;-1.22;100.00
62510;BME280;48558;48.242;11.654;2023-01-28T03:49:48;96670.28;;;-1.30;100.00
62510;BME280;48558;48.242;11.654;2023-01-28T03:54:01;96669.19;;;-1.15;100.00
62510;BME280;48558;48.242;11.654;2023-01-28T03:58:15;96680.38;;;-1.24;100.00
62510;BME280;48558;48.242;11.654;2023-01-28T04:02:28;96670.31;;;-1.27;100.00
62510;BME280;48558;48.242;11.654;2023-01-28T04:06:52;96681.13;;;-1.30;100.00
62510;BME280;48558;48.242;11.654;2023-01-28T04:11:15;96666.78;;;-1.31;100.00
62510;BME280;48558;48.242;11.654;2023-01-28T04:15:30;96679.53;;;-1.38;100.00
62510;BME280;48558;48.242;11.654;2023-01-28T04:19:43;96685.41;;;-1.29;100.00
62510;BME280;48558;48.242;11.654;2023-01-28T04:23:55;96684.28;;;-1.21;100.00
62510;BME280;48558;48.242;11.654;2023-01-28T04:28:08;96695.38;;;-1.40;100.00
62510;BME280;48558;48.242;11.654;2023-01-28T04:32:20;96697.25;;;-1.48;100.00
62510;BME280;48558;48.242;11.654;2023-01-28T04:36:33;96697.25;;;-1.48;100.00
62510;BME280;48558;48.242;11.654;2023-01-28T04:40:55;96699.56;;;-1.50;100.00
62510;BME280;48558;48.242;11.654;2023-01-28T04:45:08;96708.09;;;-1.48;100.00
62510;BME280;48558;48.242;11.654;2023-01-28T04:49:21;96708.47;;;-1.50;100.00
62510;BME280;48558;48.242;11.654;2023-01-28T04:53:34;96715.97;;;-1.32;100.00
62510;BME280;48558;48.242;11.654;2023-01-28T04:57:56;96707.63;;;-1.54;100.00
62510;BME280;48558;48.242;11.654;2023-01-28T05:02:09;96710.81;;;-1.45;100.00
62510;BME280;48558;48.242;11.654;2023-01-28T05:06:31;96720.91;;;-1.45;100.00
62510;BME280;48558;48.242;11.654;2023-01-28T05:10:44;96714.94;;;-1.61;100.00
62510;BME280;48558;48.242;11.654;2023-01-28T05:14:57;96715.28;;;-1.66;100.00
62510;BME280;48558;48.242;11.654;2023-01-28T05:19:19;96718.59;;;-1.39;100.00
62510;BME280;48558;48.242;11.654;2023-01-28T05:23:31;96710.81;;;-1.45;100.00
62510;BME280;48558;48.242;11.654;2023-01-28T05:27:49;96734.13;;;-1.36;100.00
62510;BME280;48558;48.242;11.654;2023-01-28T05:32:02;96727.53;;;-1.39;100.00
62510;BME280;48558;48.242;11.654;2023-01-28T05:36:15;96725.06;;;-1.55;100.00
62510;BME280;48558;48.242;11.654;2023-01-28T05:40:27;96740.19;;;-1.50;100.00
62510;BME280;48558;48.242;11.654;2023-01-28T05:44:40;96747.69;;;-1.36;100.00
62510;BME280;48558;48.242;11.654;2023-01-28T05:49:03;96746.50;;;-1.39;100.00
62510;BME280;48558;48.242;11.654;2023-01-28T05:53:19;96750.44;;;-1.29;100.00
62510;BME280;48558;48.242;11.654;2023-01-28T05:57:32;96755.03;;;-1.37;100.00
62510;BME280;48558;48.242;11.654;2023-01-28T06:01:44;96748.75;;;-1.45;100.00
62510;BME280;48558;48.242;11.654;2023-01-28T06:05:57;96749.66;;;-1.33;100.00
62510;BME280;48558;48.242;11.654;2023-01-28T06:10:10;96761.53;;;-1.45;100.00
62510;BME280;48558;48.242;11.654;2023-01-28T06:14:23;96747.28;;;-1.38;100.00
62510;BME280;48558;48.242;11.654;2023-01-28T06:18:35;96753.56;;;-1.27;100.00
62510;BME280;48558;48.242;11.654;2023-01-28T06:22:51;96771.69;;;-1.35;100.00
62510;BME280;48558;48.242;11.654;2023-01-28T06:27:06;96767.84;;;-1.30;100.00
62510;BME280;48558;48.242;11.654;2023-01-28T06:31:19;96776.91;;;-1.16;100.00
62510;BME280;48558;48.242;11.654;2023-01-28T06:35:31;96784.78;;;-1.00;100.00
62510;BME280;48558;48.242;11.654;2023-01-28T06:39:44;96788.56;;;-1.08;100.00
62510;BME280;48558;48.242;11.654;2023-01-28T06:43:56;96783.06;;;-1.19;100.00
62510;BME280;48558;48.242;11.654;2023-01-28T06:48:09;96786.22;;;-1.13;100.00
62510;BME280;48558;48.242;11.654;2023-01-28T06:52:21;96785.84;;;-1.12;100.00
62510;BME280;48558;48.242;11.654;2023-01-28T06:56:34;96783.13;;;-1.12;100.00
62510;BME280;48558;48.242;11.654;2023-01-28T07:00:46;96799.06;;;-1.07;100.00
62510;BME280;48558;48.242;11.654;2023-01-28T07:04:59;96811.78;;;-1.11;100.00
62510;BME280;48558;48.242;11.654;2023-01-28T07:09:14;96810.09;;;-1.29;100.00
62510;BME280;48558;48.242;11.654;2023-01-28T07:13:26;96803.22;;;-1.16;100.00
62510;BME280;48558;48.242;11.654;2023-01-28T07:17:47;96805.94;;;-1.16;100.00
62510;BME280;48558;48.242;11.654;2023-01-28T07:22:00;96814.81;;;-1.19;100.00
62510;BME280;48558;48.242;11.654;2023-01-28T07:26:14;96818.00;;;-1.10;100.00
62510;BME280;48558;48.242;11.654;2023-01-28T07:30:26;96821.94;;;-1.04;100.00
62510;BME280;48558;48.242;11.654;2023-01-28T07:34:39;96834.38;;;-1.00;100.00
62510;BME280;48558;48.242;11.654;2023-01-28T07:38:54;96816.91;;;-1.02;100.00
62510;BME280;48558;48.242;11.654;2023-01-28T07:43:09;96832.94;;;-0.83;100.00
62510;BME280;48558;48.242;11.654;2023-01-28T07:47:22;96838.63;;;-0.99;100.00
62510;BME280;48558;48.242;11.654;2023-01-28T07:51:35;96842.97;;;-0.91;100.00
62510;BME280;48558;48.242;11.654;2023-01-28T07:55:47;96846.84;;;-0.88;100.00
62510;BME280;48558;48.242;11.654;2023-01-28T07:59:59;96852.44;;;-0.70;100.00
62510;BME280;48558;48.242;11.654;2023-01-28T08:04:22;96857.09;;;-0.71;100.00
62510;BME280;48558;48.242;11.654;2023-01-28T08:08:34;96855.97;;;-0.66;100.00
62510;BME280;48558;48.242;11.654;2023-01-28T08:12:55;96857.31;;;-0.39;100.00
62510;BME280;48558;48.242;11.654;2023-01-28T08:17:22;96857.97;;;-0.56;100.00
62510;BME280;48558;48.242;11.654;2023-01-28T08:21:35;96867.38;;;-0.43;100.00
62510;BME280;48558;48.242;11.654;2023-01-28T08:25:47;96876.25;;;-0.50;100.00
62510;BME280;48558;48.242;11.654;2023-01-28T08:30:00;96880.63;;;-0.35;100.00
62510;BME280;48558;48.242;11.654;2023-01-28T08:34:20;96878.47;;;-0.08;100.00
62510;BME280;48558;48.242;11.654;2023-01-28T08:38:33;96863.34;;;-0.09;100.00
62510;BME280;48558;48.242;11.654;2023-01-28T08:42:49;96880.38;;;-0.12;100.00
62510;BME280;48558;48.242;11.654;2023-01-28T08:47:02;96884.31;;;0.01;100.00
62510;BME280;48558;48.242;11.654;2023-01-28T08:51:15;96890.94;;;0.07;100.00
62510;BME280;48558;48.242;11.654;2023-01-28T08:55:28;96891.16;;;0.53;100.00
62510;BME280;48558;48.242;11.654;2023-01-28T08:59:41;96886.38;;;0.25;100.00
62510;BME280;48558;48.242;11.654;2023-01-28T09:03:57;96889.63;;;0.59;100.00
62510;BME280;48558;48.242;11.654;2023-01-28T09:08:20;96896.19;;;0.44;100.00
62510;BME280;48558;48.242;11.654;2023-01-28T09:12:36;96894.69;;;0.57;100.00
62510;BME280;48558;48.242;11.654;2023-01-28T09:16:49;96891.59;;;0.58;100.00
62510;BME280;48558;48.242;11.654;2023-01-28T09:21:04;96896.31;;;0.86;100.00
62510;BME280;48558;48.242;11.654;2023-01-28T09:25:18;96897.88;;;0.84;100.00
62510;BME280;48558;48.242;11.654;2023-01-28T09:29:32;96894.78;;;0.85;100.00
62510;BME280;48558;48.242;11.654;2023-01-28T09:33:56;96893.63;;;0.97;100.00
62510;BME280;48558;48.242;11.654;2023-01-28T09:38:08;96895.59;;;1.07;100.00
62510;BME280;48558;48.242;11.654;2023-01-28T09:48:01;96903.78;;;1.17;100.00
62510;BME280;48558;48.242;11.654;2023-01-28T09:51:56;96896.34;;;1.00;100.00
62510;BME280;48558;48.242;11.654;2023-01-28T09:56:23;96897.59;;;1.31;100.00
62510;BME280;48558;48.242;11.654;2023-01-28T10:05:58;96894.03;;;2.04;100.00
62510;BME280;48558;48.242;11.654;2023-01-28T10:20:00;96877.34;;;1.57;100.00
62510;BME280;48558;48.242;11.654;2023-01-28T10:24:29;96878.91;;;1.29;100.00
62510;BME280;48558;48.242;11.654;2023-01-28T10:28:52;96879.66;;;1.93;100.00
62510;BME280;48558;48.242;11.654;2023-01-28T10:33:17;96876.41;;;2.37;100.00
62510;BME280;48558;48.242;11.654;2023-01-28T10:37:58;96888.44;;;2.50;100.00
62510;BME280;48558;48.242;11.654;2023-01-28T10:42:22;96878.03;;;2.21;100.00
62510;BME280;48558;48.242;11.654;2023-01-28T10:46:49;96869.41;;;2.40;100.00
62510;BME280;48558;48.242;11.654;2023-01-28T10:51:03;96871.78;;;3.07;100.00
62510;BME280;48558;48.242;11.654;2023-01-28T10:55:17;96865.81;;;3.22;100.00
62510;BME280;48558;48.242;11.654;2023-01-28T10:59:40;96869.75;;;3.18;100.00
62510;BME280;48558;48.242;11.654;2023-01-28T11:03:54;96869.75;;;3.18;100.00
62510;BME280;48558;48.242;11.654;2023-01-28T11:08:20;96868.16;;;3.24;100.00
62510;BME280;48558;48.242;11.654;2023-01-28T11:12:34;96866.38;;;3.51;100.00
62510;BME280;48558;48.242;11.654;2023-01-28T11:16:46;96864.00;;;3.02;100.00
62510;BME280;48558;48.242;11.654;2023-01-28T11:21:23;96874.97;;;1.94;100.00
62510;BME280;48558;48.242;11.654;2023-01-28T11:25:36;96870.75;;;1.43;100.00
62510;BME280;48558;48.242;11.654;2023-01-28T11:29:56;96869.16;;;1.42;100.00
62510;BME280;48558;48.242;11.654;2023-01-28T11:34:16;96877.72;;;1.16;100.00
62510;BME280;48558;48.242;11.654;2023-01-28T11:38:30;96873.06;;;1.27;100.00
62510;BME280;48558;48.242;11.654;2023-01-28T11:42:42;96868.75;;;0.98;100.00
62510;BME280;48558;48.242;11.654;2023-01-28T11:51:35;96883.47;;;0.76;100.00
62510;BME280;48558;48.242;11.654;2023-01-28T11:56:23;96868.34;;;0.79;100.00
62510;BME280;48558;48.242;11.654;2023-01-28T12:01:03;96870.66;;;0.80;100.00
62510;BME280;48558;48.242;11.654;2023-01-28T12:10:12;96869.53;;;0.88;100.00
62510;BME280;48558;48.242;11.654;2023-01-28T12:28:53;96875.00;;;1.27;100.00
62510;BME280;48558;48.242;11.654;2023-01-28T12:37:58;96871.91;;;1.28;100.00
62510;BME280;48558;48.242;11.654;2023-01-28T12:42:29;96882.00;;;1.21;100.00
62510;BME280;48558;48.242;11.654;2023-01-28T12:46:53;96871.13;;;1.17;100.00
62510;BME280;48558;48.242;11.654;2023-01-28T12:51:26;96882.38;;;0.98;100.00
62510;BME280;48558;48.242;11.654;2023-01-28T12:55:52;96878.88;;;1.05;100.00
62510;BME280;48558;48.242;11.654;2023-01-28T13:00:22;96867.22;;;1.18;100.00
62510;BME280;48558;48.242;11.654;2023-01-28T13:05:08;96868.78;;;1.23;100.00
62510;BME280;48558;48.242;11.654;2023-01-28T13:09:36;96871.47;;;0.95;100.00
62510;BME280;48558;48.242;11.654;2023-01-28T13:13:51;96876.44;;;0.64;100.00
62510;BME280;48558;48.242;11.654;2023-01-28T13:18:04;96874.56;;;0.90;100.00
62510;BME280;48558;48.242;11.654;2023-01-28T13:22:34;96885.03;;;0.84;100.00
62510;BME280;48558;48.242;11.654;2023-01-28T13:26:49;96873.41;;;0.91;100.00
62510;BME280;48558;48.242;11.654;2023-01-28T13:31:05;96878.09;;;0.97;100.00
62510;BME280;48558;48.242;11.654;2023-01-28T13:35:39;96890.91;;;1.00;100.00
62510;BME280;48558;48.242;11.654;2023-01-28T13:40:00;96885.91;;;1.30;100.00
62510;BME280;48558;48.242;11.654;2023-01-28T13:44:28;96897.94;;;1.29;100.00
62510;BME280;48558;48.242;11.654;2023-01-28T13:48:47;96901.44;;;1.33;100.00
62510;BME280;48558;48.242;11.654;2023-01-28T13:53:15;96898.38;;;1.42;100.00
62510;BME280;48558;48.242;11.654;2023-01-28T14:02:36;96903.41;;;1.61;100.00
62510;BME280;48558;48.242;11.654;2023-01-28T14:07:08;96909.66;;;1.83;100.00
62510;BME280;48558;48.242;11.654;2023-01-28T14:20:43;96921.31;;;1.48;100.00
62510;BME280;48558;48.242;11.654;2023-01-28T14:25:00;96916.63;;;1.34;100.00
62510;BME280;48558;48.242;11.654;2023-01-28T14:29:32;96927.53;;;1.41;100.00
62510;BME280;48558;48.242;11.654;2023-01-28T14:34:05;96938.00;;;1.15;100.00
62510;BME280;48558;48.242;11.654;2023-01-28T14:38:23;96926.34;;;1.28;100.00
62510;BME280;48558;48.242;11.654;2023-01-28T14:42:39;96936.47;;;1.24;100.00
62510;BME280;48558;48.242;11.654;2023-01-28T14:52:05;96939.13;;;1.07;100.00
62510;BME280;48558;48.242;11.654;2023-01-28T15:01:33;96951.88;;;0.78;100.00
62510;BME280;48558;48.242;11.654;2023-01-28T15:05:46;96947.59;;;0.70;100.00
62510;BME280;48558;48.242;11.654;2023-01-28T15:14:29;96958.88;;;0.83;100.00
62510;BME280;48558;48.242;11.654;2023-01-28T15:18:44;96965.50;;;0.89;100.00
62510;BME280;48558;48.242;11.654;2023-01-28T15:23:07;96963.09;;;0.62;100.00
62510;BME280;48558;48.242;11.654;2023-01-28T15:27:27;96959.09;;;0.42;100.00
62510;BME280;48558;48.242;11.654;2023-01-28T15:31:47;96981.19;;;0.37;100.00
62510;BME280;48558;48.242;11.654;2023-01-28T15:36:00;96984.31;;;0.36;100.00
62510;BME280;48558;48.242;11.654;2023-01-28T15:40:17;96991.69;;;0.39;100.00
62510;BME280;48558;48.242;11.654;2023-01-28T15:44:41;96991.59;;;0.21;100.00
62510;BME280;48558;48.242;11.654;2023-01-28T15:49:00;96984.97;;;0.19;100.00
62510;BME280;48558;48.242;11.654;2023-01-28T15:53:18;96999.00;;;0.24;100.00
62510;BME280;48558;48.242;11.654;2023-01-28T15:57:32;97005.66;;;0.34;100.00
62510;BME280;48558;48.242;11.654;2023-01-28T16:01:46;97011.72;;;0.17;100.00
62510;BME280;48558;48.242;11.654;2023-01-28T16:06:12;96988.41;;;0.09;100.00
62510;BME280;48558;48.242;11.654;2023-01-28T16:10:28;97010.19;;;0.19;100.00
62510;BME280;48558;48.242;11.654;2023-01-28T16:14:44;97016.81;;;0.22;100.00
62510;BME280;48558;48.242;11.654;2023-01-28T16:19:05;97013.75;;;0.27;100.00
62510;BME280;48558;48.242;11.654;2023-01-28T16:23:22;97020.78;;;0.31;100.00
62510;BME280;48558;48.242;11.654;2023-01-28T16:27:36;97034.72;;;0.30;100.00
62510;BME280;48558;48.242;11.654;2023-01-28T16:31:49;97025.03;;;0.29;100.00
62510;BME280;48558;48.242;11.654;2023-01-28T16:36:01;97028.91;;;0.28;100.00
62510;BME280;48558;48.242;11.654;2023-01-28T16:40:23;97046.28;;;0.16;100.00
62510;BME280;48558;48.242;11.654;2023-01-28T16:44:36;97040.72;;;-0.02;100.00
62510;BME280;48558;48.242;11.654;2023-01-28T16:48:48;97047.72;;;0.03;100.00
62510;BME280;48558;48.242;11.654;2023-01-28T16:53:00;97055.50;;;0.05;100.00
62510;BME280;48558;48.242;11.654;2023-01-28T16:57:15;97050.16;;;0.15;100.00
62510;BME280;48558;48.242;11.654;2023-01-28T17:01:29;97050.25;;;0.26;100.00
62510;BME280;48558;48.242;11.654;2023-01-28T17:05:42;97050.69;;;0.35;100.00
62510;BME280;48558;48.242;11.654;2023-01-28T17:10:03;97055.63;;;0.19;100.00
62510;BME280;48558;48.242;11.654;2023-01-28T17:14:16;97063.88;;;0.33;100.00
62510;BME280;48558;48.242;11.654;2023-01-28T17:18:39;97056.56;;;0.40;100.00
62510;BME280;48558;48.242;11.654;2023-01-28T17:22:51;97054.19;;;0.35;100.00
62510;BME280;48558;48.242;11.654;2023-01-28T17:27:12;97054.53;;;0.27;100.00
62510;BME280;48558;48.242;11.654;2023-01-28T17:31:26;97071.47;;;0.10;100.00
62510;BME280;48558;48.242;11.654;2023-01-28T17:35:38;97060.25;;;0.18;100.00
62510;BME280;48558;48.242;11.654;2023-01-28T17:39:51;97082.00;;;0.18;100.00
62510;BME280;48558;48.242;11.654;2023-01-28T17:44:03;97084.03;;;0.25;100.00
62510;BME280;48558;48.242;11.654;2023-01-28T17:48:16;97068.88;;;0.24;100.00
62510;BME280;48558;48.242;11.654;2023-01-28T17:52:29;97073.50;;;0.20;100.00
62510;BME280;48558;48.242;11.654;2023-01-28T17:56:42;97073.34;;;0.02;100.00
62510;BME280;48558;48.242;11.654;2023-01-28T18:00:54;97085.88;;;0.17;100.00
62510;BME280;48558;48.242;11.654;2023-01-28T18:05:07;97089.41;;;0.18;100.00
62510;BME280;48558;48.242;11.654;2023-01-28T18:09:20;97089.66;;;0.06;100.00
62510;BME280;48558;48.242;11.654;2023-01-28T18:13:37;97088.22;;;0.19;100.00
62510;BME280;48558;48.242;11.654;2023-01-28T18:17:50;97092.00;;;0.07;100.00
62510;BME280;48558;48.242;11.654;2023-01-28T18:22:03;97099.16;;;0.22;100.00
62510;BME280;48558;48.242;11.654;2023-01-28T18:26:16;97107.69;;;0.24;100.00
62510;BME280;48558;48.242;11.654;2023-01-28T18:30:28;97093.78;;;0.36;100.00
62510;BME280;48558;48.242;11.654;2023-01-28T18:34:51;97101.53;;;0.31;100.00
62510;BME280;48558;48.242;11.654;2023-01-28T18:39:04;97094.63;;;0.44;100.00
62510;BME280;48558;48.242;11.654;2023-01-28T18:43:16;97102.22;;;0.21;100.00
62510;BME280;48558;48.242;11.654;2023-01-28T18:47:29;97109.50;;;0.10;100.00
62510;BME280;48558;48.242;11.654;2023-01-28T18:51:41;97110.88;;;0.33;100.00
62510;BME280;48558;48.242;11.654;2023-01-28T18:55:54;97108.56;;;0.39;100.00
62510;BME280;48558;48.242;11.654;2023-01-28T19:00:09;97112.13;;;0.43;100.00
62510;BME280;48558;48.242;11.654;2023-01-28T19:04:22;97099.59;;;0.31;100.00
62510;BME280;48558;48.242;11.654;2023-01-28T19:08:37;97115.13;;;0.31;100.00
62510;BME280;48558;48.242;11.654;2023-01-28T19:12:49;97115.19;;;0.41;100.00
62510;BME280;48558;48.242;11.654;2023-01-28T19:17:09;97108.56;;;0.39;100.00
62510;BME280;48558;48.242;11.654;2023-01-28T19:21:22;97103.41;;;0.23;100.00
62510;BME280;48558;48.242;11.654;2023-01-28T19:25:39;97110.00;;;0.22;100.00
62510;BME280;48558;48.242;11.654;2023-01-28T19:29:51;97095.69;;;0.29;100.00
62510;BME280;48558;48.242;11.654;2023-01-28T19:34:04;97107.09;;;0.45;100.00
62510;BME280;48558;48.242;11.654;2023-01-28T19:38:17;97113.28;;;0.42;100.00
62510;BME280;48558;48.242;11.654;2023-01-28T19:42:29;97113.25;;;0.38;100.00
62510;BME280;48558;48.242;11.654;2023-01-28T19:46:42;97113.22;;;0.35;100.00
62510;BME280;48558;48.242;11.654;2023-01-28T19:50:55;97113.72;;;0.51;100.00
62510;BME280;48558;48.242;11.654;2023-01-28T19:55:08;97113.66;;;0.44;100.00
62510;BME280;48558;48.242;11.654;2023-01-28T19:59:21;97114.13;;;0.53;100.00
62510;BME280;48558;48.242;11.654;2023-01-28T20:03:33;97105.50;;;0.44;100.00
62510;BME280;48558;48.242;11.654;2023-01-28T20:07:46;97101.72;;;0.55;100.00
62510;BME280;48558;48.242;11.654;2023-01-28T20:11:59;97114.41;;;0.37;100.00
62510;BME280;48558;48.242;11.654;2023-01-28T20:16:24;97109.88;;;0.59;100.00
62510;BME280;48558;48.242;11.654;2023-01-28T20:20:37;97117.19;;;0.44;100.00
62510;BME280;48558;48.242;11.654;2023-01-28T20:24:53;97109.81;;;0.45;100.00
62510;BME280;48558;48.242;11.654;2023-01-28T20:29:13;97122.69;;;0.55;100.00
62510;BME280;48558;48.242;11.654;2023-01-28T20:33:29;97120.69;;;0.45;100.00
62510;BME280;48558;48.242;11.654;2023-01-28T20:37:41;97129.19;;;0.43;100.00
62510;BME280;48558;48.242;11.654;2023-01-28T20:41:55;97128.84;;;0.48;100.00
62510;BME280;48558;48.242;11.654;2023-01-28T20:46:14;97128.09;;;0.51;100.00
62510;BME280;48558;48.242;11.654;2023-01-28T20:50:28;97143.63;;;0.47;100.00
62510;BME280;48558;48.242;11.654;2023-01-28T20:54:41;97127.25;;;0.40;100.00
62510;BME280;48558;48.242;11.654;2023-01-28T20:59:04;97139.72;;;0.48;100.00
62510;BME280;48558;48.242;11.654;2023-01-28T21:03:17;97137.78;;;0.49;100.00
62510;BME280;48558;48.242;11.654;2023-01-28T21:07:30;97146.63;;;0.35;100.00
62510;BME280;48558;48.242;11.654;2023-01-28T21:11:43;97149.06;;;0.47;100.00
62510;BME280;48558;48.242;11.654;2023-01-28T21:15:58;97149.53;;;0.56;100.00
62510;BME280;48558;48.242;11.654;2023-01-28T21:20:11;97148.88;;;0.26;100.00
62510;BME280;48558;48.242;11.654;2023-01-28T21:24:24;97147.81;;;-0.03;100.00
62510;BME280;48558;48.242;11.654;2023-01-28T21:28:37;97144.28;;;-0.07;100.00
62510;BME280;48558;48.242;11.654;2023-01-28T21:32:49;97166.06;;;-0.03;100.00
62510;BME280;48558;48.242;11.654;2023-01-28T21:37:02;97155.09;;;-0.14;100.00
62510;BME280;48558;48.242;11.654;2023-01-28T21:41:14;97163.97;;;-0.17;100.00
62510;BME280;48558;48.242;11.654;2023-01-28T21:45:27;97167.16;;;-0.08;100.00
62510;BME280;48558;48.242;11.654;2023-01-28T21:49:40;97164.88;;;-0.02;100.00
62510;BME280;48558;48.242;11.654;2023-01-28T21:53:53;97172.31;;;0.01;100.00
62510;BME280;48558;48.242;11.654;2023-01-28T21:58:06;97169.16;;;-0.05;100.00
62510;BME280;48558;48.242;11.654;2023-01-28T22:02:38;97168.97;;;0.18;100.00
62510;BME280;48558;48.242;11.654;2023-01-28T22:06:52;97172.47;;;0.19;100.00
62510;BME280;48558;48.242;11.654;2023-01-28T22:11:06;97171.63;;;0.11;100.00
62510;BME280;48558;48.242;11.654;2023-01-28T22:15:19;97173.81;;;-0.02;100.00
62510;BME280;48558;48.242;11.654;2023-01-28T22:19:37;97179.72;;;0.04;100.00
62510;BME280;48558;48.242;11.654;2023-01-28T22:23:50;97186.25;;;-0.01;100.00
62510;BME280;48558;48.242;11.654;2023-01-28T22:28:02;97183.66;;;0.10;100.00
62510;BME280;48558;48.242;11.654;2023-01-28T22:32:15;97175.16;;;0.15;100.00
62510;BME280;48558;48.242;11.654;2023-01-28T22:36:27;97169.69;;;0.12;100.00
62510;BME280;48558;48.242;11.654;2023-01-28T22:40:50;97164.78;;;0.28;100.00
62510;BME280;48558;48.242;11.654;2023-01-28T22:45:03;97160.88;;;0.22;100.00
62510;BME280;48558;48.242;11.654;2023-01-28T22:49:16;97142.50;;;0.12;100.00
62510;BME280;48558;48.242;11.654;2023-01-28T22:53:38;97155.75;;;0.13;100.00
62510;BME280;48558;48.242;11.654;2023-01-28T22:57:51;97159.44;;;-0.06;100.00
62510;BME280;48558;48.242;11.654;2023-01-28T23:02:03;97163.41;;;0.04;100.00
62510;BME280;48558;48.242;11.654;2023-01-28T23:06:19;97164.44;;;-0.08;100.00
62510;BME280;48558;48.242;11.654;2023-01-28T23:10:32;97168.03;;;0.00;100.00
62510;BME280;48558;48.242;11.654;2023-01-28T23:14:44;97159.66;;;0.19;100.00
62510;BME280;48558;48.242;11.654;2023-01-28T23:19:16;97158.31;;;-0.01;100.00
62510;BME280;48558;48.242;11.654;2023-01-28T23:23:48;97156.47;;;0.07;100.00
62510;BME280;48558;48.242;11.654;2023-01-28T23:28:19;97154.47;;;0.04;100.00
62510;BME280;48558;48.242;11.654;2023-01-28T23:32:31;97159.81;;;-0.07;100.00
62510;BME280;48558;48.242;11.654;2023-01-28T23:36:44;97159.13;;;0.03;100.00
62510;BME280;48558;48.242;11.654;2023-01-28T23:41:02;97156.00;;;0.01;100.00
62510;BME280;48558;48.242;11.654;2023-01-28T23:45:15;97158.75;;;0.05;100.00
62510;BME280;48558;48.242;11.654;2023-01-28T23:49:27;97159.84;;;-0.04;100.00